Time;durP1;ratioP1;P1;durP2;ratioP2;P2;SDS_P1;SDS_P2;PMS_P1;PMS_P2;Temp;Humidity;BMP_temperature;BMP_pressure;BME280_temperature;BME280_humidity;BME280_pressure;Samples;Min_cycle;Max_cycle;Signal;HPM_P1;HPM_P2
2023/01/18 00:00:27;;;;;;;;;;;-3276.60;86.20;;;;;;5052810;28;19917;-84
2023/01/18 00:02:53;;;;;;;;;;;-3276.50;86.40;;;;;;5050752;28;19963;-84
2023/01/18 00:05:21;;;;;;;;;;;-3276.50;86.60;;;;;;5073985;28;19962;-83
2023/01/18 00:07:47;;;;;;;;;;;-3276.50;86.70;;;;;;5054995;28;19912;-83
2023/01/18 00:10:12;;;;;;;;;;;-3276.50;86.70;;;;;;5071694;28;19983;-82
2023/01/18 00:12:38;;;;;;;;;;;-3276.40;86.50;;;;;;5067744;28;19939;-84
2023/01/18 00:15:04;;;;;;;;;;;-3276.30;86.50;;;;;;5058245;28;19916;-83
2023/01/18 00:17:30;;;;;;;;;;;-3276.30;86.40;;;;;;5055401;28;20348;-83
2023/01/18 00:23:11;;;;;;;;;;;-3276.30;86.40;;;;;;5002331;28;20039;-83
2023/01/18 00:25:37;;;;;;;;;;;-3276.40;86.60;;;;;;5061904;28;19912;-84
2023/01/18 00:28:05;;;;;;;;;;;-3276.50;86.70;;;;;;5073043;28;20377;-83
2023/01/18 00:30:34;;;;;;;;;;;-3276.50;86.20;;;;;;5073954;28;19927;-83
2023/01/18 00:33:09;;;;;;;;;;;-3276.50;86.30;;;;;;5052472;28;19965;-83
2023/01/18 00:35:35;;;;;;;;;;;-3276.50;86.80;;;;;;5076197;28;19912;-83
2023/01/18 00:38:20;;;;;;;;;;;;;;;;;;;;;
2023/01/18 00:41:01;;;;;;;;;;;-3276.50;86.30;;;;;;5070935;28;19920;-83
2023/01/18 00:46:16;;;;;;;;;;;-3276.50;86.70;;;;;;5072050;28;19954;-83
2023/01/18 00:48:51;;;;;;;;;;;-3276.50;87.00;;;;;;5070606;28;19927;-84
2023/01/18 00:51:19;;;;;;;;;;;-3276.50;86.80;;;;;;5053065;28;20163;-84
2023/01/18 00:53:44;;;;;;;;;;;-3276.50;86.50;;;;;;5051915;28;19923;-84
2023/01/18 00:56:11;;;;;;;;;;;-3276.50;86.90;;;;;;5053303;28;19912;-84
2023/01/18 00:58:37;;;;;;;;;;;-3276.40;86.70;;;;;;5052076;28;19916;-84
2023/01/18 01:01:10;;;;;;;;;;;-3276.40;86.60;;;;;;5050596;28;19917;-84
2023/01/18 01:09:23;;;;;;;;;;;-3276.20;85.80;;;;;;5070537;28;20313;-84
2023/01/18 01:26:09;;;;;;;;;;;-3276.10;85.90;;;;;;5064814;28;19958;-83
2023/01/18 01:28:48;;;;;;;;;;;-3276.10;85.50;;;;;;5050373;28;19974;-84
2023/01/18 01:31:14;;;;;;;;;;;-3276.20;85.70;;;;;;5055236;28;19919;-83
2023/01/18 01:33:39;;;;;;;;;;;-3276.10;85.90;;;;;;5053901;28;19916;-84
2023/01/18 01:36:07;;;;;;;;;;;-3276.10;86.20;;;;;;5047418;28;20333;-84
2023/01/18 01:38:32;;;;;;;;;;;-3276.00;86.50;;;;;;5070560;28;20011;-83
2023/01/18 01:40:59;;;;;;;;;;;-3276.00;86.80;;;;;;5069071;28;20000;-84
2023/01/18 01:43:38;;;;;;;;;;;-3276.00;86.40;;;;;;5071787;28;19942;-84
2023/01/18 01:46:03;;;;;;;;;;;-3276.00;86.40;;;;;;5050360;28;20285;-84
2023/01/18 01:48:29;;;;;;;;;;;-3275.90;86.40;;;;;;5045325;28;19920;-84
2023/01/18 01:50:55;;;;;;;;;;;-3275.90;86.40;;;;;;5066326;28;19917;-84
2023/01/18 01:53:21;;;;;;;;;;;-3276.00;86.40;;;;;;5049138;28;20182;-84
2023/01/18 01:55:47;;;;;;;;;;;-3276.00;85.70;;;;;;5047644;28;19912;-83
2023/01/18 01:58:15;;;;;;;;;;;-3276.00;86.10;;;;;;5049223;28;20309;-84
2023/01/18 02:00:40;;;;;;;;;;;-3276.10;86.20;;;;;;5058245;28;19913;-84
2023/01/18 02:03:07;;;;;;;;;;;-3276.00;85.80;;;;;;5057475;28;19923;-84
2023/01/18 02:05:35;;;;;;;;;;;-3275.90;85.90;;;;;;5053452;28;19912;-84
2023/01/18 02:08:01;;;;;;;;;;;-3275.90;85.90;;;;;;5052260;28;20006;-84
2023/01/18 02:10:27;;;;;;;;;;;-3275.90;86.30;;;;;;5055288;28;19948;-84
2023/01/18 02:12:53;;;;;;;;;;;-3275.90;86.20;;;;;;5053055;28;19912;-84
2023/01/18 02:15:24;;;;;;;;;;;-3275.90;86.60;;;;;;5050522;28;20018;-83
2023/01/18 02:17:56;;;;;;;;;;;-3275.90;86.70;;;;;;5055587;28;19912;-84
2023/01/18 02:20:27;;;;;;;;;;;-3276.00;86.50;;;;;;5047988;28;20374;-84
2023/01/18 02:22:56;;;;;;;;;;;-3276.00;86.60;;;;;;5054358;28;19912;-84
2023/01/18 02:25:31;;;;;;;;;;;-3276.00;86.10;;;;;;5048709;28;19912;-84
2023/01/18 02:28:03;;;;;;;;;;;-3276.00;86.30;;;;;;5053174;28;19919;-84
2023/01/18 02:30:40;;;;;;;;;;;-3276.00;86.90;;;;;;5072143;28;20409;-83
2023/01/18 02:33:26;;;;;;;;;;;-3276.20;87.20;;;;;;5060216;28;21219;-82
2023/01/18 02:35:54;;;;;;;;;;;-3276.20;87.00;;;;;;5070425;28;19919;-85
2023/01/18 02:38:25;;;;;;;;;;;-3276.20;86.90;;;;;;5066528;28;20348;-84
2023/01/18 02:40:53;;;;;;;;;;;-3276.20;86.40;;;;;;5071159;28;20007;-84
2023/01/18 02:48:50;;;;;;;;;;;-3275.80;85.60;;;;;;5067896;28;19923;-85
2023/01/18 02:51:15;;;;;;;;;;;-3275.80;85.90;;;;;;5056004;28;19916;-84
2023/01/18 02:53:42;;;;;;;;;;;-3275.80;85.70;;;;;;5068733;28;19912;-84
2023/01/18 02:56:20;;;;;;;;;;;-3275.80;85.90;;;;;;5049633;28;19916;-84
2023/01/18 02:58:47;;;;;;;;;;;-3275.80;85.70;;;;;;5056948;28;19935;-84
2023/01/18 03:01:12;;;;;;;;;;;-3275.80;86.00;;;;;;5069352;28;20463;-84
2023/01/18 03:03:40;;;;;;;;;;;-3275.80;86.00;;;;;;5072353;28;19942;-84
2023/01/18 03:06:06;;;;;;;;;;;-3275.80;86.10;;;;;;5068766;28;19920;-84
2023/01/18 03:08:37;;;;;;;;;;;-3275.90;86.30;;;;;;5071571;28;19966;-84
2023/01/18 03:11:12;;;;;;;;;;;-3275.90;86.40;;;;;;5047845;28;19943;-84
2023/01/18 03:13:56;;;;;;;;;;;-3276.00;86.60;;;;;;5070833;28;19940;-83
2023/01/18 03:16:22;;;;;;;;;;;-3276.10;86.60;;;;;;5065177;28;19920;-84
2023/01/18 03:19:00;;;;;;;;;;;-3276.10;86.20;;;;;;5076538;28;19956;-84
2023/01/18 03:21:50;;;;;;;;;;;-3275.90;86.40;;;;;;5068687;28;19920;-85
2023/01/18 03:24:17;;;;;;;;;;;-3276.00;85.90;;;;;;5056746;28;20350;-83
2023/01/18 03:26:45;;;;;;;;;;;-3275.80;85.50;;;;;;5073909;28;19952;-84
2023/01/18 03:34:49;;;;;;;;;;;-3275.80;86.20;;;;;;5092665;28;20049;-83
2023/01/18 03:37:20;;;;;;;;;;;-3275.90;86.70;;;;;;5082587;28;19959;-84
2023/01/18 03:39:53;;;;;;;;;;;-3275.90;86.70;;;;;;5074680;28;19913;-85
2023/01/18 03:42:22;;;;;;;;;;;-3276.00;87.00;;;;;;5070504;28;19913;-84
2023/01/18 03:44:59;;;;;;;;;;;-3276.10;86.80;;;;;;5075038;28;20011;-85
2023/01/18 03:47:24;;;;;;;;;;;-3276.10;86.80;;;;;;5072726;28;20344;-84
2023/01/18 03:49:50;;;;;;;;;;;-3276.00;86.40;;;;;;5082225;28;19917;-84
2023/01/18 03:52:36;;;;;;;;;;;-3276.00;86.40;;;;;;5049910;28;19970;-85
2023/01/18 03:55:10;;;;;;;;;;;-3275.90;86.40;;;;;;5071815;28;19946;-83
2023/01/18 03:57:48;;;;;;;;;;;-3275.90;86.60;;;;;;5072077;28;19913;-84
2023/01/18 04:00:14;;;;;;;;;;;-3275.90;86.60;;;;;;5076946;28;20404;-84
2023/01/18 04:02:41;;;;;;;;;;;-3275.90;86.70;;;;;;5075175;28;19913;-84
2023/01/18 04:05:07;;;;;;;;;;;-3276.00;86.40;;;;;;5071956;28;19913;-84
2023/01/18 04:07:33;;;;;;;;;;;-3276.00;86.30;;;;;;5073272;28;19912;-84
2023/01/18 04:09:59;;;;;;;;;;;-3275.90;86.00;;;;;;5076278;28;19988;-84
2023/01/18 04:12:24;;;;;;;;;;;-3276.00;86.30;;;;;;5072509;28;19916;-84
2023/01/18 04:14:50;;;;;;;;;;;-3276.00;86.60;;;;;;5072099;28;20003;-84
2023/01/18 04:17:18;;;;;;;;;;;-3276.00;86.20;;;;;;5065912;28;19912;-84
2023/01/18 04:19:44;;;;;;;;;;;-3276.00;86.20;;;;;;5075997;28;20000;-84
2023/01/18 04:22:09;;;;;;;;;;;-3276.00;86.10;;;;;;5073380;28;19954;-84
2023/01/18 04:24:35;;;;;;;;;;;-3276.00;86.00;;;;;;5051329;28;19912;-84
2023/01/18 04:27:01;;;;;;;;;;;-3276.00;86.00;;;;;;5072626;28;20007;-84
2023/01/18 04:29:27;;;;;;;;;;;-3276.00;85.60;;;;;;5073325;28;19917;-84
2023/01/18 04:31:52;;;;;;;;;;;-3275.90;85.90;;;;;;5049802;28;19912;-84
2023/01/18 04:34:20;;;;;;;;;;;-3276.00;86.00;;;;;;5079294;28;19974;-83
2023/01/18 04:36:46;;;;;;;;;;;-3276.20;86.10;;;;;;5079323;28;19912;-84
2023/01/18 04:39:12;;;;;;;;;;;-3276.20;85.40;;;;;;5074455;28;20358;-84
2023/01/18 04:41:37;;;;;;;;;;;-3276.00;85.20;;;;;;5079093;28;19920;-84
2023/01/18 04:44:03;;;;;;;;;;;-3276.00;85.10;;;;;;5057887;28;19944;-84
2023/01/18 04:46:28;;;;;;;;;;;-3275.90;85.60;;;;;;5073070;28;19951;-84
2023/01/18 04:48:54;;;;;;;;;;;-3276.00;85.70;;;;;;5061207;28;19924;-84
2023/01/18 04:51:20;;;;;;;;;;;-3276.00;85.80;;;;;;5053430;28;19920;-84
2023/01/18 04:53:45;;;;;;;;;;;-3276.00;86.00;;;;;;5057278;28;20001;-84
2023/01/18 04:56:11;;;;;;;;;;;-3275.90;86.00;;;;;;5054218;28;20317;-85
2023/01/18 04:58:36;;;;;;;;;;;-3275.90;86.50;;;;;;5056383;28;19921;-81
2023/01/18 05:01:03;;;;;;;;;;;-3275.90;86.50;;;;;;5055673;28;19938;-84
2023/01/18 05:03:29;;;;;;;;;;;-3275.90;86.60;;;;;;5069976;28;19921;-84
2023/01/18 05:05:54;;;;;;;;;;;-3275.90;86.70;;;;;;5074001;28;20412;-84
2023/01/18 05:08:20;;;;;;;;;;;-3275.80;86.60;;;;;;5073930;28;19912;-84
2023/01/18 05:10:46;;;;;;;;;;;-3275.90;86.80;;;;;;5065626;28;19920;-83
2023/01/18 05:13:11;;;;;;;;;;;-3275.90;86.50;;;;;;5073457;28;20007;-84
2023/01/18 05:15:37;;;;;;;;;;;-3275.90;86.70;;;;;;5054287;28;19917;-84
2023/01/18 05:18:02;;;;;;;;;;;-3276.00;86.40;;;;;;5068426;28;19917;-83
2023/01/18 05:20:28;;;;;;;;;;;-3276.00;86.50;;;;;;5068372;28;19920;-84
2023/01/18 05:22:53;;;;;;;;;;;-3275.90;86.40;;;;;;5052616;28;19916;-84
2023/01/18 05:25:19;;;;;;;;;;;-3276.00;86.50;;;;;;5072452;28;20066;-85
2023/01/18 05:27:44;;;;;;;;;;;-3276.00;86.30;;;;;;5070020;28;19920;-84
2023/01/18 05:30:10;;;;;;;;;;;-3275.90;86.40;;;;;;5071192;28;19917;-84
2023/01/18 05:32:36;;;;;;;;;;;-3275.90;86.80;;;;;;5067624;28;19924;-85
2023/01/18 05:35:05;;;;;;;;;;;-3275.80;86.90;;;;;;5073379;28;19916;-85
2023/01/18 05:37:30;;;;;;;;;;;-3275.90;86.80;;;;;;5051486;28;21597;-85
2023/01/18 05:39:56;;;;;;;;;;;-3275.90;87.00;;;;;;5070084;28;19963;-84
2023/01/18 05:42:21;;;;;;;;;;;-3275.90;87.10;;;;;;5055265;28;19981;-84
2023/01/18 05:44:47;;;;;;;;;;;-3275.90;86.90;;;;;;5066516;28;19923;-84
2023/01/18 05:47:12;;;;;;;;;;;-3275.90;87.00;;;;;;5068202;28;19912;-84
2023/01/18 05:49:38;;;;;;;;;;;-3275.90;86.80;;;;;;5066777;28;20305;-83
2023/01/18 05:52:03;;;;;;;;;;;-3275.90;86.80;;;;;;5078931;22;19998;-81
2023/01/18 05:54:29;;;;;;;;;;;-3275.90;87.00;;;;;;5071249;28;19924;-82
2023/01/18 05:59:25;;;;;;;;;;;-3276.00;87.00;;;;;;5038098;28;19940;-82
2023/01/18 06:01:50;;;;;;;;;;;-3276.00;86.90;;;;;;5033874;28;19913;-79
2023/01/18 06:04:16;;;;;;;;;;;-3276.10;87.00;;;;;;5025700;28;20009;-80
2023/01/18 06:06:41;;;;;;;;;;;-3276.10;86.70;;;;;;5024317;28;19924;-81
2023/01/18 06:09:07;;;;;;;;;;;-3276.10;86.70;;;;;;5018472;28;19924;-80
2023/01/18 06:11:32;;;;;;;;;;;-3276.10;86.50;;;;;;5027531;28;19917;-79
2023/01/18 06:13:58;;;;;;;;;;;-3276.10;86.50;;;;;;5030116;28;19913;-80
2023/01/18 06:16:23;;;;;;;;;;;-3276.10;86.60;;;;;;5023751;28;19917;-81
2023/01/18 06:18:49;;;;;;;;;;;-3276.20;86.60;;;;;;5028870;28;20015;-81
2023/01/18 06:21:14;;;;;;;;;;;-3276.20;86.70;;;;;;5031337;28;20338;-81
2023/01/18 06:23:40;;;;;;;;;;;-3276.10;86.50;;;;;;5028416;28;19913;-82
2023/01/18 06:26:05;;;;;;;;;;;-3276.10;86.40;;;;;;5017407;28;19943;-82
2023/01/18 06:28:31;;;;;;;;;;;-3276.00;86.40;;;;;;5043789;28;20385;-81
2023/01/18 06:30:56;;;;;;;;;;;-3275.90;86.70;;;;;;5039960;28;19940;-81
2023/01/18 06:33:22;;;;;;;;;;;-3276.10;87.10;;;;;;5046712;28;19913;-81
2023/01/18 06:35:48;;;;;;;;;;;-3276.10;86.90;;;;;;5032719;28;19913;-87
2023/01/18 06:38:13;;;;;;;;;;;-3276.10;86.70;;;;;;5032722;28;20341;-79
2023/01/18 06:40:39;;;;;;;;;;;-3276.10;86.70;;;;;;5033571;28;20388;-83
2023/01/18 06:43:06;;;;;;;;;;;-3276.10;86.60;;;;;;5025672;28;19913;-82
2023/01/18 06:45:32;;;;;;;;;;;-3276.00;86.50;;;;;;5028668;28;20666;-82
2023/01/18 06:47:57;;;;;;;;;;;-3276.10;87.00;;;;;;5025537;28;20377;-83
2023/01/18 06:50:23;;;;;;;;;;;-3276.20;86.70;;;;;;5030885;28;19917;-81
2023/01/18 06:52:48;;;;;;;;;;;-3276.20;86.70;;;;;;5027392;28;19920;-82
2023/01/18 06:55:14;;;;;;;;;;;-3276.30;86.10;;;;;;5045662;28;19917;-81
2023/01/18 06:57:40;;;;;;;;;;;-3276.30;85.90;;;;;;5035187;28;19921;-81
2023/01/18 07:00:06;;;;;;;;;;;-3276.30;85.70;;;;;;5046654;28;19951;-84
2023/01/18 07:02:32;;;;;;;;;;;-3276.20;85.70;;;;;;5038944;28;19981;-82
2023/01/18 07:04:58;;;;;;;;;;;-3276.10;85.60;;;;;;5038352;28;19920;-82
2023/01/18 07:07:23;;;;;;;;;;;-3276.10;85.80;;;;;;5036628;28;20091;-83
2023/01/18 07:09:48;;;;;;;;;;;-3276.10;85.60;;;;;;5031824;28;20282;-83
2023/01/18 07:12:14;;;;;;;;;;;-3276.00;85.60;;;;;;5031249;28;19914;-83
2023/01/18 07:14:40;;;;;;;;;;;-3276.00;85.80;;;;;;5049390;28;20333;-83
2023/01/18 07:17:05;;;;;;;;;;;-3276.00;86.10;;;;;;5042252;28;19921;-84
2023/01/18 07:19:30;;;;;;;;;;;-3276.10;86.20;;;;;;5039729;28;19921;-80
2023/01/18 07:21:57;;;;;;;;;;;-3276.20;86.50;;;;;;5031444;28;19923;-81
2023/01/18 07:24:23;;;;;;;;;;;-3276.30;86.30;;;;;;5035369;28;19971;-81
2023/01/18 07:26:48;;;;;;;;;;;-3276.20;85.90;;;;;;5027846;28;19914;-82
2023/01/18 07:29:14;;;;;;;;;;;-3276.30;86.20;;;;;;5030051;28;19921;-83
2023/01/18 07:31:39;;;;;;;;;;;-3276.30;86.00;;;;;;5033873;28;19920;-81
2023/01/18 07:34:05;;;;;;;;;;;-3276.30;85.80;;;;;;5028976;28;19982;-82
2023/01/18 07:36:31;;;;;;;;;;;-3276.40;85.90;;;;;;5028732;28;19917;-80
2023/01/18 07:38:56;;;;;;;;;;;-3276.30;85.30;;;;;;5022014;28;19948;-82
2023/01/18 07:41:25;;;;;;;;;;;-3276.20;85.80;;;;;;5036160;28;19916;-82
2023/01/18 07:43:50;;;;;;;;;;;-3276.30;85.60;;;;;;5034810;28;19920;-82
2023/01/18 07:46:19;;;;;;;;;;;-3276.30;85.70;;;;;;5028713;28;19913;-84
2023/01/18 07:48:45;;;;;;;;;;;-3276.20;85.80;;;;;;5029022;28;20431;-83
2023/01/18 07:51:11;;;;;;;;;;;-3276.30;86.00;;;;;;5027068;28;19921;-83
2023/01/18 07:53:37;;;;;;;;;;;-3276.40;85.70;;;;;;5035990;28;19975;-82
2023/01/18 07:56:04;;;;;;;;;;;-3276.50;85.30;;;;;;5037150;28;19949;-83
2023/01/18 07:58:29;;;;;;;;;;;-3276.50;84.90;;;;;;5033644;28;20369;-81
2023/01/18 08:01:00;;;;;;;;;;;-3276.50;85.30;;;;;;5028325;28;19920;-82
2023/01/18 08:03:25;;;;;;;;;;;-3276.50;85.30;;;;;;5035126;28;20060;-81
2023/01/18 08:05:51;;;;;;;;;;;-3276.50;85.20;;;;;;5039006;28;20168;-82
2023/01/18 08:08:17;;;;;;;;;;;-3276.50;85.30;;;;;;5030960;28;19914;-83
2023/01/18 08:10:43;;;;;;;;;;;-3276.50;85.10;;;;;;5024910;28;20496;-83
2023/01/18 08:13:09;;;;;;;;;;;-3276.50;84.90;;;;;;5027610;28;19937;-83
2023/01/18 08:15:35;;;;;;;;;;;-3276.60;85.10;;;;;;5027800;28;19938;-83
2023/01/18 08:18:01;;;;;;;;;;;-3276.60;84.70;;;;;;5026628;28;19921;-80
2023/01/18 08:20:27;;;;;;;;;;;-3276.50;84.40;;;;;;5036396;28;19916;-82
2023/01/18 08:22:54;;;;;;;;;;;-3276.50;85.30;;;;;;5029883;28;19909;-83
2023/01/18 08:25:19;;;;;;;;;;;-3276.50;84.80;;;;;;5035383;28;19967;-83
2023/01/18 08:27:44;;;;;;;;;;;-3276.50;85.00;;;;;;5048624;28;20261;-82
2023/01/18 08:30:10;;;;;;;;;;;-3276.50;84.60;;;;;;5033537;28;19961;-82
2023/01/18 08:32:36;;;;;;;;;;;-3276.50;84.50;;;;;;5033505;28;19917;-84
2023/01/18 08:35:01;;;;;;;;;;;-3276.40;84.70;;;;;;5038065;28;20302;-84
2023/01/18 08:37:27;;;;;;;;;;;-3276.50;84.30;;;;;;5041330;28;19917;-84
2023/01/18 08:39:52;;;;;;;;;;;-3276.50;83.90;;;;;;5036865;28;20012;-82
2023/01/18 08:42:18;;;;;;;;;;;-3276.50;84.00;;;;;;5030311;28;19913;-81
2023/01/18 08:44:43;;;;;;;;;;;-3276.50;84.00;;;;;;5033880;28;19917;-81
2023/01/18 08:47:09;;;;;;;;;;;-3276.50;84.50;;;;;;5028984;28;20425;-80
2023/01/18 08:49:34;;;;;;;;;;;-3276.60;84.50;;;;;;5039453;28;19995;-80
2023/01/18 08:52:00;;;;;;;;;;;-3276.50;85.20;;;;;;5032321;28;19917;-81
2023/01/18 08:54:25;;;;;;;;;;;-3276.60;85.10;;;;;;5030581;28;20285;-83
2023/01/18 08:56:51;;;;;;;;;;;-3276.60;84.90;;;;;;5036066;28;21571;-82
2023/01/18 08:59:18;;;;;;;;;;;-3276.60;84.80;;;;;;5047533;28;19917;-80
2023/01/18 09:01:44;;;;;;;;;;;-3276.70;84.80;;;;;;5048351;28;19905;-83
2023/01/18 09:04:09;;;;;;;;;;;-3276.70;85.00;;;;;;5048996;28;19919;-85
2023/01/18 09:06:35;;;;;;;;;;;0.00;85.10;;;;;;5038462;28;20412;-84
2023/01/18 09:09:00;;;;;;;;;;;0.00;85.00;;;;;;5046004;28;19952;-82
2023/01/18 09:11:26;;;;;;;;;;;0.10;85.00;;;;;;5036753;28;19921;-82
2023/01/18 09:13:53;;;;;;;;;;;0.20;84.50;;;;;;5028415;28;19975;-82
2023/01/18 09:16:19;;;;;;;;;;;0.10;84.40;;;;;;5037713;28;19924;-82
2023/01/18 09:18:45;;;;;;;;;;;0.10;84.30;;;;;;5036115;28;20540;-82
2023/01/18 09:21:12;;;;;;;;;;;0.10;84.40;;;;;;5036112;28;19913;-84
2023/01/18 09:23:38;;;;;;;;;;;0.10;84.30;;;;;;5036547;28;19925;-84
2023/01/18 09:26:08;;;;;;;;;;;0.10;84.70;;;;;;5037634;28;19913;-84
2023/01/18 09:28:34;;;;;;;;;;;0.20;84.30;;;;;;5046791;28;19964;-82
2023/01/18 09:31:00;;;;;;;;;;;0.10;84.10;;;;;;5030059;28;19925;-83
2023/01/18 09:33:26;;;;;;;;;;;0.10;84.60;;;;;;5033236;28;19921;-83
2023/01/18 09:35:51;;;;;;;;;;;0.10;84.80;;;;;;5043099;28;19940;-83
2023/01/18 09:38:16;;;;;;;;;;;0.20;84.50;;;;;;5029266;28;19917;-82
2023/01/18 09:40:43;;;;;;;;;;;0.10;84.40;;;;;;5035861;28;19921;-83
2023/01/18 09:43:14;;;;;;;;;;;0.20;84.50;;;;;;5032339;28;19949;-83
2023/01/18 09:45:43;;;;;;;;;;;0.30;84.90;;;;;;5030470;28;20034;-83
2023/01/18 09:48:27;;;;;;;;;;;0.30;84.60;;;;;;5041041;28;19923;-82
2023/01/18 09:50:53;;;;;;;;;;;0.30;84.80;;;;;;5048001;28;19916;-83
2023/01/18 09:53:34;;;;;;;;;;;0.40;84.80;;;;;;5035136;28;19969;-83
2023/01/18 09:56:04;;;;;;;;;;;0.40;84.70;;;;;;5049183;28;19912;-85
2023/01/18 09:58:29;;;;;;;;;;;0.40;84.80;;;;;;5062030;28;19917;-84
2023/01/18 10:01:00;;;;;;;;;;;0.50;84.70;;;;;;5050260;28;19944;-84
2023/01/18 10:03:32;;;;;;;;;;;0.50;84.70;;;;;;5050397;28;19960;-83
2023/01/18 10:06:10;;;;;;;;;;;0.60;84.70;;;;;;5051279;28;19912;-83
2023/01/18 10:08:44;;;;;;;;;;;0.60;84.60;;;;;;5038722;28;19936;-80
2023/01/18 10:11:14;;;;;;;;;;;0.60;84.80;;;;;;5027223;28;19925;-84
2023/01/18 10:13:52;;;;;;;;;;;0.70;84.70;;;;;;5023800;28;19924;-82
2023/01/18 10:16:19;;;;;;;;;;;0.80;84.30;;;;;;5028021;28;19913;-82
2023/01/18 10:18:46;;;;;;;;;;;0.80;84.40;;;;;;5021395;28;19999;-82
2023/01/18 10:21:17;;;;;;;;;;;0.90;84.20;;;;;;5024211;28;19959;-83
2023/01/18 10:23:49;;;;;;;;;;;0.90;84.40;;;;;;5026798;28;20284;-83
2023/01/18 10:26:19;;;;;;;;;;;0.80;84.30;;;;;;5034511;28;19920;-82
2023/01/18 10:28:50;;;;;;;;;;;0.80;84.20;;;;;;5030972;28;19921;-82
2023/01/18 10:31:16;;;;;;;;;;;0.90;83.80;;;;;;5028836;28;20361;-82
2023/01/18 10:33:42;;;;;;;;;;;1.00;84.00;;;;;;5029814;28;19927;-82
2023/01/18 10:36:14;;;;;;;;;;;1.00;83.80;;;;;;5033715;28;20000;-83
2023/01/18 10:38:40;;;;;;;;;;;1.10;83.90;;;;;;5025268;28;19984;-83
2023/01/18 10:41:14;;;;;;;;;;;1.10;83.60;;;;;;5032025;28;20051;-82
2023/01/18 10:43:39;;;;;;;;;;;1.20;83.80;;;;;;5040866;28;20112;-82
2023/01/18 10:46:12;;;;;;;;;;;1.20;83.90;;;;;;5038248;28;19999;-82
2023/01/18 10:48:38;;;;;;;;;;;1.30;83.90;;;;;;5052568;28;19913;-82
2023/01/18 10:51:07;;;;;;;;;;;1.30;83.30;;;;;;5043885;28;19901;-82
2023/01/18 10:53:35;;;;;;;;;;;1.30;83.20;;;;;;5039301;28;19923;-83
2023/01/18 10:56:01;;;;;;;;;;;1.30;83.40;;;;;;5031058;28;19915;-82
2023/01/18 10:58:29;;;;;;;;;;;1.40;83.50;;;;;;5035355;28;19921;-81
2023/01/18 11:00:55;;;;;;;;;;;1.50;83.50;;;;;;5025084;28;20572;-81
2023/01/18 11:03:22;;;;;;;;;;;1.50;83.10;;;;;;5028893;28;19921;-81
2023/01/18 11:05:47;;;;;;;;;;;1.50;82.90;;;;;;5024413;28;19936;-82
2023/01/18 11:08:20;;;;;;;;;;;1.50;82.40;;;;;;5029577;28;20355;-82
2023/01/18 11:10:49;;;;;;;;;;;1.50;83.00;;;;;;5028210;28;19972;-82
2023/01/18 11:13:22;;;;;;;;;;;1.60;83.20;;;;;;5024464;28;19920;-81
2023/01/18 11:15:50;;;;;;;;;;;1.60;82.40;;;;;;5030474;28;19914;-83
2023/01/18 11:18:16;;;;;;;;;;;1.60;82.20;;;;;;5030552;28;20408;-81
2023/01/18 11:20:44;;;;;;;;;;;1.60;82.30;;;;;;5028601;28;19917;-83
2023/01/18 11:23:12;;;;;;;;;;;1.60;82.10;;;;;;5028462;28;20015;-82
2023/01/18 11:25:39;;;;;;;;;;;1.60;82.80;;;;;;5031859;28;19917;-82
2023/01/18 11:28:10;;;;;;;;;;;1.70;82.80;;;;;;5024683;28;19917;-82
2023/01/18 11:30:46;;;;;;;;;;;1.80;82.50;;;;;;5033080;28;19917;-83
2023/01/18 11:33:15;;;;;;;;;;;1.80;82.30;;;;;;5031956;28;19921;-82
2023/01/18 11:35:41;;;;;;;;;;;1.80;81.80;;;;;;5027158;28;19914;-82
2023/01/18 11:38:16;;;;;;;;;;;1.90;81.60;;;;;;5023819;28;19919;-82
2023/01/18 11:40:42;;;;;;;;;;;2.00;81.60;;;;;;5028676;28;19917;-81
2023/01/18 11:43:21;;;;;;;;;;;2.00;81.10;;;;;;5029012;28;20004;-82
2023/01/18 11:45:49;;;;;;;;;;;2.00;80.80;;;;;;5053396;28;19948;-81
2023/01/18 11:48:29;;;;;;;;;;;2.10;80.60;;;;;;5021241;28;19971;-82
2023/01/18 11:51:07;;;;;;;;;;;2.10;80.70;;;;;;5052842;22;19956;-81
2023/01/18 11:53:40;;;;;;;;;;;2.00;80.60;;;;;;5049212;28;19927;-80
2023/01/18 11:56:12;;;;;;;;;;;2.10;79.90;;;;;;5068756;28;19935;-81
2023/01/18 11:58:38;;;;;;;;;;;2.10;79.50;;;;;;5049171;28;20409;-81
2023/01/18 12:01:10;;;;;;;;;;;2.10;79.70;;;;;;5043049;28;19913;-80
2023/01/18 12:03:42;;;;;;;;;;;2.10;79.60;;;;;;5028693;28;19967;-80
2023/01/18 12:06:18;;;;;;;;;;;2.20;79.10;;;;;;5033736;28;20371;-80
2023/01/18 12:09:02;;;;;;;;;;;2.20;79.80;;;;;;5028358;28;19924;-82
2023/01/18 12:11:41;;;;;;;;;;;2.20;80.20;;;;;;5034738;28;19913;-82
2023/01/18 12:14:12;;;;;;;;;;;2.30;79.30;;;;;;5033927;28;20383;-83
2023/01/18 12:16:44;;;;;;;;;;;2.30;79.20;;;;;;5041016;28;19999;-82
2023/01/18 12:19:34;;;;;;;;;;;2.30;79.10;;;;;;5051416;28;20394;-82
2023/01/18 12:22:08;;;;;;;;;;;2.40;78.70;;;;;;5046587;28;19925;-82
2023/01/18 12:24:42;;;;;;;;;;;2.40;78.40;;;;;;5026801;28;20337;-82
2023/01/18 12:27:17;;;;;;;;;;;2.50;78.10;;;;;;5038358;28;19921;-80
2023/01/18 12:29:51;;;;;;;;;;;2.50;78.30;;;;;;5030180;28;19917;-82
2023/01/18 12:32:17;;;;;;;;;;;2.50;78.20;;;;;;5042293;28;19913;-79
2023/01/18 12:34:57;;;;;;;;;;;2.60;77.90;;;;;;5045953;28;19913;-79
2023/01/18 12:37:31;;;;;;;;;;;2.50;78.40;;;;;;5030723;28;19913;-81
2023/01/18 12:40:07;;;;;;;;;;;2.50;78.50;;;;;;5032416;28;19913;-81
2023/01/18 12:42:32;;;;;;;;;;;2.60;77.80;;;;;;5034877;28;19909;-81
2023/01/18 12:44:59;;;;;;;;;;;2.60;78.00;;;;;;5044495;28;20032;-81
2023/01/18 12:47:26;;;;;;;;;;;2.60;78.00;;;;;;5031200;28;20449;-81
2023/01/18 12:49:56;;;;;;;;;;;2.80;76.90;;;;;;5035134;28;19921;-81
2023/01/18 12:52:22;;;;;;;;;;;2.80;77.30;;;;;;5035502;28;19940;-82
2023/01/18 12:54:49;;;;;;;;;;;2.70;77.40;;;;;;5052710;28;20367;-80
2023/01/18 12:57:15;;;;;;;;;;;2.80;76.90;;;;;;5039690;28;20023;-80
2023/01/18 12:59:49;;;;;;;;;;;2.90;76.50;;;;;;5034043;28;19925;-81
2023/01/18 13:02:23;;;;;;;;;;;2.80;76.30;;;;;;5037337;28;19913;-81
2023/01/18 13:05:02;;;;;;;;;;;2.80;77.00;;;;;;5030486;28;19913;-79
2023/01/18 13:07:33;;;;;;;;;;;2.80;76.60;;;;;;5049191;28;19951;-80
2023/01/18 13:09:59;;;;;;;;;;;2.80;76.30;;;;;;5035102;28;19921;-79
2023/01/18 13:12:25;;;;;;;;;;;2.90;76.40;;;;;;5049048;28;19957;-80
2023/01/18 13:15:09;;;;;;;;;;;2.90;75.80;;;;;;5027386;28;19928;-86
2023/01/18 13:17:50;;;;;;;;;;;3.00;75.50;;;;;;5029368;28;20020;-81
2023/01/18 13:20:21;;;;;;;;;;;2.90;75.50;;;;;;5060673;28;19917;-82
2023/01/18 13:22:52;;;;;;;;;;;2.90;75.70;;;;;;5065282;28;19909;-79
2023/01/18 13:25:21;;;;;;;;;;;3.00;75.20;;;;;;5047217;28;19913;-82
2023/01/18 13:27:57;;;;;;;;;;;3.00;75.30;;;;;;5056572;28;19960;-81
2023/01/18 13:30:23;;;;;;;;;;;3.00;74.90;;;;;;5029911;28;19928;-81
2023/01/18 13:32:52;;;;;;;;;;;3.10;75.20;;;;;;5049044;28;19920;-87
2023/01/18 13:35:30;;;;;;;;;;;3.10;75.00;;;;;;5031915;28;19913;-80
2023/01/18 13:37:58;;;;;;;;;;;3.10;74.60;;;;;;5037410;28;19920;-80
2023/01/18 13:40:27;;;;;;;;;;;3.00;74.70;;;;;;5043927;28;20464;-80
2023/01/18 13:42:52;;;;;;;;;;;3.00;75.10;;;;;;5037042;28;20422;-80
2023/01/18 13:45:24;;;;;;;;;;;3.00;74.50;;;;;;5038062;28;20016;-81
2023/01/18 13:48:04;;;;;;;;;;;3.00;74.60;;;;;;5021955;28;19913;-80
2023/01/18 13:50:30;;;;;;;;;;;3.00;74.30;;;;;;5027840;28;20416;-80
2023/01/18 13:53:18;;;;;;;;;;;3.10;74.20;;;;;;5032226;28;20003;-80
2023/01/18 13:55:53;;;;;;;;;;;3.10;74.70;;;;;;5032452;28;19963;-78
2023/01/18 13:58:23;;;;;;;;;;;3.10;74.60;;;;;;5054840;28;19917;-78
2023/01/18 14:00:49;;;;;;;;;;;3.10;75.30;;;;;;5036045;28;19913;-81
2023/01/18 14:03:17;;;;;;;;;;;3.10;74.40;;;;;;5048428;28;19978;-81
2023/01/18 14:05:44;;;;;;;;;;;3.00;74.80;;;;;;5031192;28;19914;-81
2023/01/18 14:08:17;;;;;;;;;;;3.10;74.90;;;;;;5029637;28;20422;-81
2023/01/18 14:10:46;;;;;;;;;;;3.10;74.40;;;;;;5029918;28;19929;-81
2023/01/18 14:13:16;;;;;;;;;;;3.10;74.20;;;;;;5033418;28;20155;-80
2023/01/18 14:15:41;;;;;;;;;;;3.00;75.20;;;;;;5043662;28;19913;-80
2023/01/18 14:18:16;;;;;;;;;;;3.10;74.90;;;;;;5025353;28;19920;-81
2023/01/18 14:20:56;;;;;;;;;;;3.00;75.00;;;;;;5027009;28;19913;-81
2023/01/18 14:23:34;;;;;;;;;;;3.10;74.70;;;;;;5043713;28;19914;-80
2023/01/18 14:26:01;;;;;;;;;;;3.10;74.50;;;;;;5033435;28;20355;-81
2023/01/18 14:28:32;;;;;;;;;;;3.10;75.00;;;;;;5043856;28;19913;-80
2023/01/18 14:30:58;;;;;;;;;;;3.10;75.00;;;;;;5050286;22;19929;-76
2023/01/18 14:33:31;;;;;;;;;;;3.10;75.70;;;;;;5024665;28;19917;-76
2023/01/18 14:35:57;;;;;;;;;;;3.00;75.40;;;;;;5027558;28;19921;-75
2023/01/18 14:38:23;;;;;;;;;;;3.00;75.80;;;;;;5019721;28;19913;-76
2023/01/18 14:40:50;;;;;;;;;;;3.00;76.00;;;;;;5016307;28;20284;-76
2023/01/18 14:43:20;;;;;;;;;;;3.00;76.00;;;;;;4994107;28;20001;-76
2023/01/18 14:45:55;;;;;;;;;;;2.90;76.00;;;;;;5009772;28;19909;-76
2023/01/18 14:48:22;;;;;;;;;;;3.00;76.40;;;;;;5009721;28;19910;-76